Search for airport 
image banner adimage banner adimage banner ad
image banner ad

8PN6 - Lansdale Hospital

Located in Lansdale, United States

ICAO - 8PN6, IATA -

Data provided by Airmate  

General information

Coordinates: N40°15'9" W75°16'13"
Elevation is 330 feet MSL.
 
View others Airports in Pennsylvania

Operational data

Special qualification required
Current time UTC:
Current local time:
Weather at : KLOM - Wings Field ( 13 km )
METAR: KLOM 071355Z AUTO 03003KT 10SM CLR 15/03 A2992 RMK AO2 T01450028
View NOTAMs / SUP AIP / TFR affecting this airport [VIEW]
Communications frequencies: [VIEW]

Runways:

Airport contact information

Address: Lansdale United States

Satellite view of 8PN6